Pitts, Georgia
Current Conditions -  °F | °C
As of 8:35 AM on Sunday 23 Nov 2014 (Local Time) from KCKF Reporting Station
Drizzle Drizzle  
Wind Chill: 62°   Ceiling: 600
Heat Index: 62°   Visibility: 7mi
Dew Point: 60°   Wind: 12mph
Humidity: 94%   Direction: 120°ESE
Pressure: 29.98"   Gusts: NA
Location:  31.94°N, 83.54°W
Report Text: KCKF 231335Z AUTO 12010KT 7SM DZ BKN006 OVC018 17/16 A2998 RMK AO2 T01680158
Loading
Personal Weather Stations






























Interactive Weather Map New forecast layout! Learn more

10-Day Weather Forecast

Advertisements
Track Severe Weather on mobile